<?xml version="1.0" encoding="UTF-8" standalone="no" ?>
<gpx xmlns="http://www.topografix.com/GPX/1/1" xmlns:xsi="http://www.w3.org/2001/XMLSchema-instance" xsi:schemaLocation="http://www.topografix.com/GPX/1/1 http://www.topografix.com/GPX/1/1/gpx.xsd" version="1.1" creator="VisuGPX - https://www.visugpx.com">
  <metadata>
    <name>Transcaucasie: Géorgie + Arménie</name>
  </metadata>
  <trk>
    <name><![CDATA[Tour d'Europe: étape 449]]></name>
    <extensions>
      <line xmlns="http://www.topografix.com/GPX/gpx_style/0/2">
        <color>008800</color>
        <width>4</width>
      </line>
    </extensions>
    <trkseg>
      <trkpt lat="42.59062" lon="42.71789">
        <ele>456.604565</ele>
        <time>2021-09-20T06:05:48.888Z</time>
      </trkpt>
      <trkpt lat="42.59029" lon="42.71674">
        <ele>456.499686</ele>
        <time>2021-09-20T06:26:03.356Z</time>
      </trkpt>
      <trkpt lat="42.58953" lon="42.71501">
        <ele>454.114698</ele>
        <time>2021-09-20T06:27:48.295Z</time>
      </trkpt>
      <trkpt lat="42.58916" lon="42.71257">
        <ele>453.83802</ele>
        <time>2021-09-20T06:29:32.288Z</time>
      </trkpt>
      <trkpt lat="42.58786" lon="42.71087">
        <ele>470.832185</ele>
        <time>2021-09-20T06:32:12.298Z</time>
      </trkpt>
      <trkpt lat="42.58603" lon="42.70978">
        <ele>499.61108</ele>
        <time>2021-09-20T06:44:41.287Z</time>
      </trkpt>
      <trkpt lat="42.58622" lon="42.70724">
        <ele>508.887212</ele>
        <time>2021-09-20T06:46:23.303Z</time>
      </trkpt>
      <trkpt lat="42.58655" lon="42.70501">
        <ele>512.125784</ele>
        <time>2021-09-20T06:48:18.300Z</time>
      </trkpt>
      <trkpt lat="42.58609" lon="42.7023">
        <ele>502.637499</ele>
        <time>2021-09-20T06:49:56.313Z</time>
      </trkpt>
      <trkpt lat="42.58647" lon="42.70166">
        <ele>483.465021</ele>
        <time>2021-09-20T06:51:33.358Z</time>
      </trkpt>
      <trkpt lat="42.5875" lon="42.70207">
        <ele>460.790707</ele>
        <time>2021-09-20T06:53:04.363Z</time>
      </trkpt>
      <trkpt lat="42.58921" lon="42.70088">
        <ele>450.67911</ele>
        <time>2021-09-20T06:54:25.306Z</time>
      </trkpt>
      <trkpt lat="42.58786" lon="42.69915">
        <ele>446.314853</ele>
        <time>2021-09-20T07:10:46.314Z</time>
      </trkpt>
      <trkpt lat="42.58661" lon="42.6965">
        <ele>434.654902</ele>
        <time>2021-09-20T07:11:38.314Z</time>
      </trkpt>
      <trkpt lat="42.5859" lon="42.69384">
        <ele>441.200606</ele>
        <time>2021-09-20T07:12:45.356Z</time>
      </trkpt>
      <trkpt lat="42.58452" lon="42.69188">
        <ele>447.791323</ele>
        <time>2021-09-20T07:14:11.312Z</time>
      </trkpt>
      <trkpt lat="42.58326" lon="42.689">
        <ele>439.003795</ele>
        <time>2021-09-20T07:14:48.317Z</time>
      </trkpt>
      <trkpt lat="42.58106" lon="42.68843">
        <ele>447.491381</ele>
        <time>2021-09-20T07:16:01.316Z</time>
      </trkpt>
      <trkpt lat="42.57879" lon="42.68653">
        <ele>440.994791</ele>
        <time>2021-09-20T07:16:41.311Z</time>
      </trkpt>
      <trkpt lat="42.57884" lon="42.68348">
        <ele>432.101824</ele>
        <time>2021-09-20T07:17:30.303Z</time>
      </trkpt>
      <trkpt lat="42.57778" lon="42.68124">
        <ele>434.213444</ele>
        <time>2021-09-20T07:18:24.313Z</time>
      </trkpt>
      <trkpt lat="42.57576" lon="42.68101">
        <ele>439.874007</ele>
        <time>2021-09-20T07:19:30.309Z</time>
      </trkpt>
      <trkpt lat="42.57318" lon="42.68206">
        <ele>436.293005</ele>
        <time>2021-09-20T07:20:19.329Z</time>
      </trkpt>
      <trkpt lat="42.57032" lon="42.68325">
        <ele>419.086901</ele>
        <time>2021-09-20T07:20:59.319Z</time>
      </trkpt>
      <trkpt lat="42.56755" lon="42.68378">
        <ele>410.262103</ele>
        <time>2021-09-20T07:21:39.304Z</time>
      </trkpt>
      <trkpt lat="42.56546" lon="42.68399">
        <ele>422.405072</ele>
        <time>2021-09-20T07:23:41.318Z</time>
      </trkpt>
      <trkpt lat="42.56343" lon="42.68424">
        <ele>437.241403</ele>
        <time>2021-09-20T07:26:08.315Z</time>
      </trkpt>
      <trkpt lat="42.56113" lon="42.68445">
        <ele>440.941445</ele>
        <time>2021-09-20T07:34:41.309Z</time>
      </trkpt>
      <trkpt lat="42.55882" lon="42.68527">
        <ele>426.045719</ele>
        <time>2021-09-20T07:35:21.347Z</time>
      </trkpt>
      <trkpt lat="42.55598" lon="42.68493">
        <ele>407.691105</ele>
        <time>2021-09-20T07:36:01.355Z</time>
      </trkpt>
      <trkpt lat="42.55414" lon="42.6844">
        <ele>423.883229</ele>
        <time>2021-09-20T07:38:05.318Z</time>
      </trkpt>
      <trkpt lat="42.55338" lon="42.68186">
        <ele>447.547036</ele>
        <time>2021-09-20T07:40:19.329Z</time>
      </trkpt>
      <trkpt lat="42.55279" lon="42.67921">
        <ele>446.692441</ele>
        <time>2021-09-20T07:41:20.349Z</time>
      </trkpt>
      <trkpt lat="42.55106" lon="42.67763">
        <ele>436.794335</ele>
        <time>2021-09-20T07:42:27.348Z</time>
      </trkpt>
      <trkpt lat="42.5514" lon="42.6748">
        <ele>441.386618</ele>
        <time>2021-09-20T07:43:23.313Z</time>
      </trkpt>
      <trkpt lat="42.55045" lon="42.67158">
        <ele>437.162598</ele>
        <time>2021-09-20T07:44:09.306Z</time>
      </trkpt>
      <trkpt lat="42.55013" lon="42.66839">
        <ele>422.896685</ele>
        <time>2021-09-20T07:44:49.313Z</time>
      </trkpt>
      <trkpt lat="42.55055" lon="42.66508">
        <ele>417.157015</ele>
        <time>2021-09-20T07:45:29.316Z</time>
      </trkpt>
      <trkpt lat="42.54889" lon="42.66275">
        <ele>403.787501</ele>
        <time>2021-09-20T07:45:56.316Z</time>
      </trkpt>
      <trkpt lat="42.54798" lon="42.65937">
        <ele>387.643603</ele>
        <time>2021-09-20T07:46:27.297Z</time>
      </trkpt>
      <trkpt lat="42.54698" lon="42.65695">
        <ele>383.548491</ele>
        <time>2021-09-20T07:47:19.334Z</time>
      </trkpt>
      <trkpt lat="42.54481" lon="42.65687">
        <ele>386.470806</ele>
        <time>2021-09-20T07:48:07.305Z</time>
      </trkpt>
      <trkpt lat="42.54323" lon="42.65486">
        <ele>390.947305</ele>
        <time>2021-09-20T07:48:54.321Z</time>
      </trkpt>
      <trkpt lat="42.54277" lon="42.65214">
        <ele>394.256719</ele>
        <time>2021-09-20T07:50:14.332Z</time>
      </trkpt>
      <trkpt lat="42.54156" lon="42.65027">
        <ele>399.231996</ele>
        <time>2021-09-20T07:52:13.323Z</time>
      </trkpt>
      <trkpt lat="42.53924" lon="42.64976">
        <ele>382.648534</ele>
        <time>2021-09-20T07:52:53.326Z</time>
      </trkpt>
      <trkpt lat="42.53686" lon="42.65015">
        <ele>366.322563</ele>
        <time>2021-09-20T07:53:45.314Z</time>
      </trkpt>
      <trkpt lat="42.53462" lon="42.64952">
        <ele>358.689739</ele>
        <time>2021-09-20T07:54:25.311Z</time>
      </trkpt>
      <trkpt lat="42.5326" lon="42.64719">
        <ele>357.682384</ele>
        <time>2021-09-20T07:55:02.310Z</time>
      </trkpt>
      <trkpt lat="42.53007" lon="42.64639">
        <ele>348.042023</ele>
        <time>2021-09-20T07:55:44.330Z</time>
      </trkpt>
      <trkpt lat="42.52879" lon="42.6442">
        <ele>363.693427</ele>
        <time>2021-09-20T07:57:09.355Z</time>
      </trkpt>
      <trkpt lat="42.5272" lon="42.64272">
        <ele>370.359312</ele>
        <time>2021-09-20T07:58:27.337Z</time>
      </trkpt>
      <trkpt lat="42.52508" lon="42.64387">
        <ele>360.638886</ele>
        <time>2021-09-20T07:59:28.340Z</time>
      </trkpt>
      <trkpt lat="42.52228" lon="42.64328">
        <ele>342.152291</ele>
        <time>2021-09-20T08:00:08.325Z</time>
      </trkpt>
      <trkpt lat="42.52181" lon="42.63992">
        <ele>351.025612</ele>
        <time>2021-09-20T08:00:56.315Z</time>
      </trkpt>
      <trkpt lat="42.51936" lon="42.63959">
        <ele>348.08814</ele>
        <time>2021-09-20T08:01:36.314Z</time>
      </trkpt>
      <trkpt lat="42.51741" lon="42.64014">
        <ele>350.602005</ele>
        <time>2021-09-20T08:02:55.327Z</time>
      </trkpt>
      <trkpt lat="42.51537" lon="42.63982">
        <ele>352.999385</ele>
        <time>2021-09-20T08:03:46.316Z</time>
      </trkpt>
      <trkpt lat="42.51405" lon="42.63743">
        <ele>358.446721</ele>
        <time>2021-09-20T08:04:59.323Z</time>
      </trkpt>
      <trkpt lat="42.51203" lon="42.63665">
        <ele>349.219225</ele>
        <time>2021-09-20T08:05:53.334Z</time>
      </trkpt>
      <trkpt lat="42.5098" lon="42.6381">
        <ele>337.067423</ele>
        <time>2021-09-20T08:06:36.307Z</time>
      </trkpt>
      <trkpt lat="42.50774" lon="42.63718">
        <ele>334.481939</ele>
        <time>2021-09-20T08:07:32.318Z</time>
      </trkpt>
      <trkpt lat="42.50531" lon="42.63744">
        <ele>334.711706</ele>
        <time>2021-09-20T08:13:19.315Z</time>
      </trkpt>
      <trkpt lat="42.50303" lon="42.63773">
        <ele>339.893494</ele>
        <time>2021-09-20T08:14:24.301Z</time>
      </trkpt>
      <trkpt lat="42.50064" lon="42.63757">
        <ele>345.750294</ele>
        <time>2021-09-20T08:15:29.315Z</time>
      </trkpt>
      <trkpt lat="42.4987" lon="42.63759">
        <ele>369.052143</ele>
        <time>2021-09-20T08:17:19.317Z</time>
      </trkpt>
      <trkpt lat="42.49686" lon="42.63748">
        <ele>375.292388</ele>
        <time>2021-09-20T08:19:16.314Z</time>
      </trkpt>
      <trkpt lat="42.49557" lon="42.6345">
        <ele>356.462439</ele>
        <time>2021-09-20T08:19:55.302Z</time>
      </trkpt>
      <trkpt lat="42.49455" lon="42.63142">
        <ele>338.078642</ele>
        <time>2021-09-20T08:20:29.326Z</time>
      </trkpt>
      <trkpt lat="42.49228" lon="42.62938">
        <ele>331.869564</ele>
        <time>2021-09-20T08:21:19.297Z</time>
      </trkpt>
      <trkpt lat="42.49236" lon="42.62633">
        <ele>324.776341</ele>
        <time>2021-09-20T08:22:14.328Z</time>
      </trkpt>
      <trkpt lat="42.49068" lon="42.62454">
        <ele>331.196687</ele>
        <time>2021-09-20T08:23:09.316Z</time>
      </trkpt>
      <trkpt lat="42.48951" lon="42.62174">
        <ele>343.221665</ele>
        <time>2021-09-20T08:40:33.325Z</time>
      </trkpt>
      <trkpt lat="42.4879" lon="42.61997">
        <ele>345.86805</ele>
        <time>2021-09-20T08:41:39.320Z</time>
      </trkpt>
      <trkpt lat="42.4864" lon="42.61669">
        <ele>343.101178</ele>
        <time>2021-09-20T08:42:19.322Z</time>
      </trkpt>
      <trkpt lat="42.48549" lon="42.61385">
        <ele>336.159005</ele>
        <time>2021-09-20T08:43:08.311Z</time>
      </trkpt>
      <trkpt lat="42.48512" lon="42.61106">
        <ele>334.027347</ele>
        <time>2021-09-20T08:44:11.320Z</time>
      </trkpt>
      <trkpt lat="42.48395" lon="42.60841">
        <ele>337.455191</ele>
        <time>2021-09-20T08:45:38.319Z</time>
      </trkpt>
      <trkpt lat="42.48208" lon="42.60746">
        <ele>340.285246</ele>
        <time>2021-09-20T08:46:37.319Z</time>
      </trkpt>
      <trkpt lat="42.47987" lon="42.60696">
        <ele>342.386872</ele>
        <time>2021-09-20T08:47:38.324Z</time>
      </trkpt>
      <trkpt lat="42.47765" lon="42.60652">
        <ele>336.361651</ele>
        <time>2021-09-20T08:48:46.315Z</time>
      </trkpt>
      <trkpt lat="42.47558" lon="42.60556">
        <ele>337.211269</ele>
        <time>2021-09-20T08:50:18.362Z</time>
      </trkpt>
      <trkpt lat="42.47307" lon="42.60487">
        <ele>323.787109</ele>
        <time>2021-09-20T08:50:49.314Z</time>
      </trkpt>
      <trkpt lat="42.47121" lon="42.60288">
        <ele>316.265437</ele>
        <time>2021-09-20T08:51:26.311Z</time>
      </trkpt>
      <trkpt lat="42.46933" lon="42.60169">
        <ele>310.903635</ele>
        <time>2021-09-20T08:52:17.335Z</time>
      </trkpt>
      <trkpt lat="42.46772" lon="42.59974">
        <ele>313.992843</ele>
        <time>2021-09-20T08:53:22.328Z</time>
      </trkpt>
      <trkpt lat="42.46527" lon="42.59837">
        <ele>306.4126</ele>
        <time>2021-09-20T08:54:04.312Z</time>
      </trkpt>
      <trkpt lat="42.46267" lon="42.59743">
        <ele>302.611976</ele>
        <time>2021-09-20T08:54:47.349Z</time>
      </trkpt>
      <trkpt lat="42.4609" lon="42.59782">
        <ele>311.505073</ele>
        <time>2021-09-20T08:56:25.321Z</time>
      </trkpt>
      <trkpt lat="42.45896" lon="42.59862">
        <ele>317.92289</ele>
        <time>2021-09-20T08:57:58.318Z</time>
      </trkpt>
      <trkpt lat="42.4569" lon="42.59854">
        <ele>307.939658</ele>
        <time>2021-09-20T08:58:43.315Z</time>
      </trkpt>
      <trkpt lat="42.4558" lon="42.59588">
        <ele>307.222861</ele>
        <time>2021-09-20T08:59:17.314Z</time>
      </trkpt>
      <trkpt lat="42.45468" lon="42.59581">
        <ele>321.896908</ele>
        <time>2021-09-20T09:01:38.383Z</time>
      </trkpt>
      <trkpt lat="42.45332" lon="42.59428">
        <ele>340.435485</ele>
        <time>2021-09-20T09:04:30.326Z</time>
      </trkpt>
      <trkpt lat="42.45229" lon="42.59244">
        <ele>353.935474</ele>
        <time>2021-09-20T09:07:19.315Z</time>
      </trkpt>
      <trkpt lat="42.45149" lon="42.59011">
        <ele>368.565994</ele>
        <time>2021-09-20T09:10:02.312Z</time>
      </trkpt>
      <trkpt lat="42.45084" lon="42.58771">
        <ele>385.32572</ele>
        <time>2021-09-20T09:12:38.323Z</time>
      </trkpt>
      <trkpt lat="42.45174" lon="42.58549">
        <ele>403.688999</ele>
        <time>2021-09-20T09:23:37.319Z</time>
      </trkpt>
      <trkpt lat="42.45137" lon="42.58313">
        <ele>416.918513</ele>
        <time>2021-09-20T09:26:16.323Z</time>
      </trkpt>
      <trkpt lat="42.45097" lon="42.58052">
        <ele>429.051353</ele>
        <time>2021-09-20T09:28:44.304Z</time>
      </trkpt>
      <trkpt lat="42.45033" lon="42.57814">
        <ele>442.654373</ele>
        <time>2021-09-20T09:31:19.366Z</time>
      </trkpt>
      <trkpt lat="42.4493" lon="42.57598">
        <ele>457.418961</ele>
        <time>2021-09-20T09:34:12.321Z</time>
      </trkpt>
      <trkpt lat="42.44857" lon="42.57366">
        <ele>478.979118</ele>
        <time>2021-09-20T09:37:11.318Z</time>
      </trkpt>
      <trkpt lat="42.44883" lon="42.57119">
        <ele>500.812926</ele>
        <time>2021-09-20T09:40:04.337Z</time>
      </trkpt>
      <trkpt lat="42.44745" lon="42.56996">
        <ele>510.620453</ele>
        <time>2021-09-20T09:43:17.352Z</time>
      </trkpt>
      <trkpt lat="42.44532" lon="42.57037">
        <ele>528.313144</ele>
        <time>2021-09-20T09:49:54.338Z</time>
      </trkpt>
      <trkpt lat="42.44347" lon="42.57105">
        <ele>537.592277</ele>
        <time>2021-09-20T09:52:15.319Z</time>
      </trkpt>
      <trkpt lat="42.44165" lon="42.57171">
        <ele>534.613755</ele>
        <time>2021-09-20T09:53:18.311Z</time>
      </trkpt>
      <trkpt lat="42.44142" lon="42.57477">
        <ele>525.847458</ele>
        <time>2021-09-20T09:53:58.331Z</time>
      </trkpt>
      <trkpt lat="42.44045" lon="42.57773">
        <ele>524.826958</ele>
        <time>2021-09-20T09:54:45.308Z</time>
      </trkpt>
      <trkpt lat="42.43901" lon="42.58005">
        <ele>524.891979</ele>
        <time>2021-09-20T09:55:52.325Z</time>
      </trkpt>
      <trkpt lat="42.43857" lon="42.5828">
        <ele>519.368894</ele>
        <time>2021-09-20T09:56:38.325Z</time>
      </trkpt>
      <trkpt lat="42.43727" lon="42.58419">
        <ele>512.445842</ele>
        <time>2021-09-20T09:57:41.322Z</time>
      </trkpt>
      <trkpt lat="42.43536" lon="42.58238">
        <ele>508.477563</ele>
        <time>2021-09-20T09:58:47.319Z</time>
      </trkpt>
      <trkpt lat="42.43386" lon="42.58036">
        <ele>505.107331</ele>
        <time>2021-09-20T09:59:30.307Z</time>
      </trkpt>
      <trkpt lat="42.43248" lon="42.57804">
        <ele>505.439558</ele>
        <time>2021-09-20T10:00:22.329Z</time>
      </trkpt>
      <trkpt lat="42.43119" lon="42.57594">
        <ele>502.786912</ele>
        <time>2021-09-20T10:01:14.322Z</time>
      </trkpt>
      <trkpt lat="42.42964" lon="42.57354">
        <ele>500.84325</ele>
        <time>2021-09-20T10:02:04.342Z</time>
      </trkpt>
      <trkpt lat="42.42766" lon="42.57206">
        <ele>500.330361</ele>
        <time>2021-09-20T10:03:00.321Z</time>
      </trkpt>
      <trkpt lat="42.42571" lon="42.57133">
        <ele>502.170544</ele>
        <time>2021-09-20T10:04:04.324Z</time>
      </trkpt>
      <trkpt lat="42.42354" lon="42.57171">
        <ele>501.080052</ele>
        <time>2021-09-20T10:05:03.299Z</time>
      </trkpt>
      <trkpt lat="42.42137" lon="42.57292">
        <ele>494.892061</ele>
        <time>2021-09-20T10:05:50.316Z</time>
      </trkpt>
      <trkpt lat="42.42039" lon="42.57609">
        <ele>493.203034</ele>
        <time>2021-09-20T10:07:05.319Z</time>
      </trkpt>
      <trkpt lat="42.41894" lon="42.5785">
        <ele>485.740686</ele>
        <time>2021-09-20T10:07:57.325Z</time>
      </trkpt>
      <trkpt lat="42.41778" lon="42.58085">
        <ele>472.636042</ele>
        <time>2021-09-20T10:08:38.317Z</time>
      </trkpt>
      <trkpt lat="42.41617" lon="42.57761">
        <ele>454.171288</ele>
        <time>2021-09-20T10:09:18.361Z</time>
      </trkpt>
      <trkpt lat="42.41526" lon="42.5746">
        <ele>437.641685</ele>
        <time>2021-09-20T10:09:48.320Z</time>
      </trkpt>
      <trkpt lat="42.41321" lon="42.57176">
        <ele>428.612887</ele>
        <time>2021-09-20T10:10:27.321Z</time>
      </trkpt>
      <trkpt lat="42.41137" lon="42.5696">
        <ele>419.831951</ele>
        <time>2021-09-20T10:11:08.314Z</time>
      </trkpt>
      <trkpt lat="42.40944" lon="42.56667">
        <ele>401.864148</ele>
        <time>2021-09-20T10:11:46.313Z</time>
      </trkpt>
      <trkpt lat="42.40722" lon="42.5643">
        <ele>389.609902</ele>
        <time>2021-09-20T10:12:26.319Z</time>
      </trkpt>
      <trkpt lat="42.40531" lon="42.56632">
        <ele>375.428181</ele>
        <time>2021-09-20T10:13:10.320Z</time>
      </trkpt>
      <trkpt lat="42.40531" lon="42.57017">
        <ele>354.821834</ele>
        <time>2021-09-20T10:13:50.321Z</time>
      </trkpt>
      <trkpt lat="42.40549" lon="42.57396">
        <ele>331.017449</ele>
        <time>2021-09-20T10:14:30.305Z</time>
      </trkpt>
      <trkpt lat="42.40379" lon="42.57551">
        <ele>309.010076</ele>
        <time>2021-09-20T10:15:09.310Z</time>
      </trkpt>
      <trkpt lat="42.40133" lon="42.57516">
        <ele>286.21121</ele>
        <time>2021-09-20T10:15:49.324Z</time>
      </trkpt>
      <trkpt lat="42.40069" lon="42.57213">
        <ele>263.56161</ele>
        <time>2021-09-20T10:26:03.333Z</time>
      </trkpt>
      <trkpt lat="42.39931" lon="42.56924">
        <ele>245.909943</ele>
        <time>2021-09-20T10:26:38.322Z</time>
      </trkpt>
      <trkpt lat="42.39673" lon="42.56793">
        <ele>226.37874</ele>
        <time>2021-09-20T10:27:18.326Z</time>
      </trkpt>
      <trkpt lat="42.39415" lon="42.56599">
        <ele>197.330611</ele>
        <time>2021-09-20T10:27:56.314Z</time>
      </trkpt>
      <trkpt lat="42.39258" lon="42.56325">
        <ele>177.464207</ele>
        <time>2021-09-20T10:28:26.291Z</time>
      </trkpt>
      <trkpt lat="42.39153" lon="42.55989">
        <ele>171.317984</ele>
        <time>2021-09-20T10:29:08.295Z</time>
      </trkpt>
      <trkpt lat="42.39071" lon="42.55729">
        <ele>172.768006</ele>
        <time>2021-09-20T10:30:04.330Z</time>
      </trkpt>
      <trkpt lat="42.38873" lon="42.5562">
        <ele>173.489144</ele>
        <time>2021-09-20T10:31:00.312Z</time>
      </trkpt>
      <trkpt lat="42.38664" lon="42.557">
        <ele>177.446715</ele>
        <time>2021-09-20T10:32:16.324Z</time>
      </trkpt>
      <trkpt lat="42.38488" lon="42.55844">
        <ele>184.892292</ele>
        <time>2021-09-20T10:34:00.344Z</time>
      </trkpt>
      <trkpt lat="42.38399" lon="42.56047">
        <ele>201.720482</ele>
        <time>2021-09-20T10:36:21.322Z</time>
      </trkpt>
      <trkpt lat="42.38289" lon="42.56152">
        <ele>221.087421</ele>
        <time>2021-09-20T10:39:15.315Z</time>
      </trkpt>
      <trkpt lat="42.38261" lon="42.56402">
        <ele>237.314618</ele>
        <time>2021-09-20T10:42:07.325Z</time>
      </trkpt>
      <trkpt lat="42.38146" lon="42.56598">
        <ele>248.201348</ele>
        <time>2021-09-20T10:44:46.325Z</time>
      </trkpt>
      <trkpt lat="42.38164" lon="42.56875">
        <ele>256.014706</ele>
        <time>2021-09-20T10:46:46.327Z</time>
      </trkpt>
      <trkpt lat="42.382" lon="42.57136">
        <ele>270.119018</ele>
        <time>2021-09-20T10:49:25.324Z</time>
      </trkpt>
      <trkpt lat="42.3813" lon="42.57384">
        <ele>272.053441</ele>
        <time>2021-09-20T10:51:25.312Z</time>
      </trkpt>
      <trkpt lat="42.37959" lon="42.57571">
        <ele>258.796627</ele>
        <time>2021-09-20T10:52:13.323Z</time>
      </trkpt>
      <trkpt lat="42.37685" lon="42.57708">
        <ele>224.323578</ele>
        <time>2021-09-20T10:52:55.322Z</time>
      </trkpt>
      <trkpt lat="42.37503" lon="42.57872">
        <ele>205.782242</ele>
        <time>2021-09-20T10:53:18.320Z</time>
      </trkpt>
      <trkpt lat="42.37322" lon="42.58007">
        <ele>197.511226</ele>
        <time>2021-09-20T10:53:39.311Z</time>
      </trkpt>
      <trkpt lat="42.37119" lon="42.58137">
        <ele>196.887807</ele>
        <time>2021-09-20T10:54:29.361Z</time>
      </trkpt>
      <trkpt lat="42.3687" lon="42.58366">
        <ele>183.922566</ele>
        <time>2021-09-20T10:55:09.319Z</time>
      </trkpt>
      <trkpt lat="42.36822" lon="42.58519">
        <ele>160.82074</ele>
        <time>2021-09-20T10:55:58.372Z</time>
      </trkpt>
      <trkpt lat="42.36714" lon="42.58782">
        <ele>146.774461</ele>
        <time>2021-09-20T10:56:39.320Z</time>
      </trkpt>
      <trkpt lat="42.36511" lon="42.58735">
        <ele>152.127474</ele>
        <time>2021-09-20T10:58:11.320Z</time>
      </trkpt>
      <trkpt lat="42.36321" lon="42.58673">
        <ele>167.422188</ele>
        <time>2021-09-20T11:00:50.310Z</time>
      </trkpt>
      <trkpt lat="42.36165" lon="42.58846">
        <ele>180.338539</ele>
        <time>2021-09-20T11:03:29.329Z</time>
      </trkpt>
      <trkpt lat="42.36191" lon="42.59163">
        <ele>181.304189</ele>
        <time>2021-09-20T11:04:38.325Z</time>
      </trkpt>
      <trkpt lat="42.36149" lon="42.59454">
        <ele>172.678369</ele>
        <time>2021-09-20T11:05:18.320Z</time>
      </trkpt>
      <trkpt lat="42.35914" lon="42.59511">
        <ele>165.787295</ele>
        <time>2021-09-20T11:05:59.304Z</time>
      </trkpt>
      <trkpt lat="42.35701" lon="42.59604">
        <ele>158.854521</ele>
        <time>2021-09-20T11:06:23.328Z</time>
      </trkpt>
      <trkpt lat="42.35435" lon="42.59724">
        <ele>157.778075</ele>
        <time>2021-09-20T11:07:14.315Z</time>
      </trkpt>
      <trkpt lat="42.3528" lon="42.59662">
        <ele>168.23345</ele>
        <time>2021-09-20T11:09:29.312Z</time>
      </trkpt>
      <trkpt lat="42.351" lon="42.5954">
        <ele>170.76622</ele>
        <time>2021-09-20T11:11:17.314Z</time>
      </trkpt>
      <trkpt lat="42.34887" lon="42.59693">
        <ele>154.137314</ele>
        <time>2021-09-20T11:11:45.322Z</time>
      </trkpt>
      <trkpt lat="42.3465" lon="42.59685">
        <ele>145.769435</ele>
        <time>2021-09-20T11:12:31.305Z</time>
      </trkpt>
      <trkpt lat="42.34459" lon="42.59537">
        <ele>145.687578</ele>
        <time>2021-09-20T11:13:25.321Z</time>
      </trkpt>
      <trkpt lat="42.34277" lon="42.59526">
        <ele>151.601297</ele>
        <time>2021-09-20T11:14:51.318Z</time>
      </trkpt>
      <trkpt lat="42.34164" lon="42.59731">
        <ele>156.06994</ele>
        <time>2021-09-20T11:16:45.337Z</time>
      </trkpt>
      <trkpt lat="42.33956" lon="42.59802">
        <ele>154.28021</ele>
        <time>2021-09-20T11:17:51.353Z</time>
      </trkpt>
      <trkpt lat="42.33742" lon="42.59822">
        <ele>160.274319</ele>
        <time>2021-09-20T11:19:14.317Z</time>
      </trkpt>
      <trkpt lat="42.33547" lon="42.59871">
        <ele>163.175612</ele>
        <time>2021-09-20T11:21:09.351Z</time>
      </trkpt>
      <trkpt lat="42.33296" lon="42.59943">
        <ele>156.625102</ele>
        <time>2021-09-20T11:22:05.326Z</time>
      </trkpt>
      <trkpt lat="42.33067" lon="42.59891">
        <ele>143.366722</ele>
        <time>2021-09-20T11:23:43.289Z</time>
      </trkpt>
      <trkpt lat="42.32928" lon="42.60031">
        <ele>129.517722</ele>
        <time>2021-09-20T11:24:57.296Z</time>
      </trkpt>
      <trkpt lat="42.3276" lon="42.60226">
        <ele>115.698987</ele>
        <time>2021-09-20T11:25:43.295Z</time>
      </trkpt>
      <trkpt lat="42.32677" lon="42.60498">
        <ele>113.116293</ele>
        <time>2021-09-20T11:26:33.284Z</time>
      </trkpt>
      <trkpt lat="42.3251" lon="42.60641">
        <ele>118.558812</ele>
        <time>2021-09-20T11:27:40.289Z</time>
      </trkpt>
      <trkpt lat="42.32353" lon="42.60642">
        <ele>122.012744</ele>
        <time>2021-09-20T11:29:12.287Z</time>
      </trkpt>
      <trkpt lat="42.32226" lon="42.60862">
        <ele>134.369176</ele>
        <time>2021-09-20T11:31:27.293Z</time>
      </trkpt>
      <trkpt lat="42.32125" lon="42.61111">
        <ele>135.449105</ele>
        <time>2021-09-20T11:36:21.296Z</time>
      </trkpt>
      <trkpt lat="42.32024" lon="42.61398">
        <ele>129.116551</ele>
        <time>2021-09-20T11:37:12.287Z</time>
      </trkpt>
      <trkpt lat="42.31901" lon="42.61651">
        <ele>130.936987</ele>
        <time>2021-09-20T11:38:18.295Z</time>
      </trkpt>
      <trkpt lat="42.31799" lon="42.61877">
        <ele>139.606742</ele>
        <time>2021-09-20T11:40:12.284Z</time>
      </trkpt>
      <trkpt lat="42.31736" lon="42.62132">
        <ele>151.088655</ele>
        <time>2021-09-20T11:42:23.302Z</time>
      </trkpt>
      <trkpt lat="42.3166" lon="42.62417">
        <ele>147.864949</ele>
        <time>2021-09-20T11:43:17.292Z</time>
      </trkpt>
      <trkpt lat="42.3154" lon="42.62649">
        <ele>153.536548</ele>
        <time>2021-09-20T11:44:49.311Z</time>
      </trkpt>
      <trkpt lat="42.31516" lon="42.62908">
        <ele>166.640402</ele>
        <time>2021-09-20T11:47:18.284Z</time>
      </trkpt>
      <trkpt lat="42.31457" lon="42.63158">
        <ele>172.865479</ele>
        <time>2021-09-20T11:49:41.287Z</time>
      </trkpt>
      <trkpt lat="42.31269" lon="42.63283">
        <ele>181.435752</ele>
        <time>2021-09-20T11:50:59.317Z</time>
      </trkpt>
      <trkpt lat="42.31143" lon="42.63502">
        <ele>180.113563</ele>
        <time>2021-09-20T11:52:03.290Z</time>
      </trkpt>
      <trkpt lat="42.30951" lon="42.63539">
        <ele>176.745305</ele>
        <time>2021-09-20T11:53:13.298Z</time>
      </trkpt>
      <trkpt lat="42.30817" lon="42.63324">
        <ele>175.763446</ele>
        <time>2021-09-20T11:54:25.300Z</time>
      </trkpt>
      <trkpt lat="42.3057" lon="42.63255">
        <ele>173.52388</ele>
        <time>2021-09-20T11:55:16.282Z</time>
      </trkpt>
      <trkpt lat="42.30452" lon="42.63191">
        <ele>188.517612</ele>
        <time>2021-09-20T11:57:42.286Z</time>
      </trkpt>
      <trkpt lat="42.30466" lon="42.63467">
        <ele>190.430485</ele>
        <time>2021-09-20T11:58:55.283Z</time>
      </trkpt>
      <trkpt lat="42.30548" lon="42.63761">
        <ele>175.295927</ele>
        <time>2021-09-20T11:59:37.284Z</time>
      </trkpt>
      <trkpt lat="42.30423" lon="42.64048">
        <ele>160.055233</ele>
        <time>2021-09-20T12:00:19.292Z</time>
      </trkpt>
      <trkpt lat="42.30278" lon="42.64255">
        <ele>170.266878</ele>
        <time>2021-09-20T12:02:06.284Z</time>
      </trkpt>
      <trkpt lat="42.30134" lon="42.64416">
        <ele>187.438944</ele>
        <time>2021-09-20T12:04:37.293Z</time>
      </trkpt>
      <trkpt lat="42.30016" lon="42.64608">
        <ele>200.773169</ele>
        <time>2021-09-20T12:07:04.289Z</time>
      </trkpt>
      <trkpt lat="42.29933" lon="42.64832">
        <ele>208.964497</ele>
        <time>2021-09-20T12:09:30.284Z</time>
      </trkpt>
      <trkpt lat="42.29852" lon="42.65098">
        <ele>211.017461</ele>
        <time>2021-09-20T12:10:38.298Z</time>
      </trkpt>
      <trkpt lat="42.29728" lon="42.65326">
        <ele>213.518811</ele>
        <time>2021-09-20T12:11:56.284Z</time>
      </trkpt>
      <trkpt lat="42.29627" lon="42.65573">
        <ele>213.847604</ele>
        <time>2021-09-20T12:13:00.298Z</time>
      </trkpt>
      <trkpt lat="42.29488" lon="42.6576">
        <ele>217.387776</ele>
        <time>2021-09-20T12:14:07.291Z</time>
      </trkpt>
      <trkpt lat="42.29295" lon="42.65841">
        <ele>217.837881</ele>
        <time>2021-09-20T12:15:18.287Z</time>
      </trkpt>
      <trkpt lat="42.29088" lon="42.66048">
        <ele>214.515496</ele>
        <time>2021-09-20T12:16:06.287Z</time>
      </trkpt>
      <trkpt lat="42.28908" lon="42.66149">
        <ele>216.522862</ele>
        <time>2021-09-20T12:17:43.285Z</time>
      </trkpt>
      <trkpt lat="42.28806" lon="42.66373">
        <ele>203.734947</ele>
        <time>2021-09-20T12:18:29.286Z</time>
      </trkpt>
      <trkpt lat="42.28656" lon="42.6637">
        <ele>205.54174</ele>
        <time>2021-09-20T12:19:37.291Z</time>
      </trkpt>
      <trkpt lat="42.28422" lon="42.66433">
        <ele>210.541875</ele>
        <time>2021-09-20T12:20:50.285Z</time>
      </trkpt>
      <trkpt lat="42.28169" lon="42.66484">
        <ele>197.193949</ele>
        <time>2021-09-20T12:21:29.286Z</time>
      </trkpt>
      <trkpt lat="42.2798" lon="42.66538">
        <ele>187.77791</ele>
        <time>2021-09-20T12:22:05.296Z</time>
      </trkpt>
      <trkpt lat="42.27844" lon="42.66662">
        <ele>201.176168</ele>
        <time>2021-09-20T12:24:11.292Z</time>
      </trkpt>
      <trkpt lat="42.27688" lon="42.66786">
        <ele>212.684608</ele>
        <time>2021-09-20T12:26:39.289Z</time>
      </trkpt>
      <trkpt lat="42.27485" lon="42.66793">
        <ele>210.588884</ele>
        <time>2021-09-20T12:27:49.283Z</time>
      </trkpt>
      <trkpt lat="42.27334" lon="42.66686">
        <ele>201.554868</ele>
        <time>2021-09-20T12:28:57.289Z</time>
      </trkpt>
      <trkpt lat="42.27143" lon="42.66817">
        <ele>186.708421</ele>
        <time>2021-09-20T12:29:52.287Z</time>
      </trkpt>
      <trkpt lat="42.27061" lon="42.67133">
        <ele>177.326694</ele>
        <time>2021-09-20T12:30:37.282Z</time>
      </trkpt>
      <trkpt lat="42.26977" lon="42.67506">
        <ele>168.226942</ele>
        <time>2021-09-20T12:31:17.287Z</time>
      </trkpt>
      <trkpt lat="42.26889" lon="42.67792">
        <ele>171.754608</ele>
        <time>2021-09-20T12:32:06.287Z</time>
      </trkpt>
      <trkpt lat="42.26806" lon="42.68066">
        <ele>177.567534</ele>
        <time>2021-09-20T12:33:06.318Z</time>
      </trkpt>
      <trkpt lat="42.26711" lon="42.68341">
        <ele>181.525689</ele>
        <time>2021-09-20T12:34:06.291Z</time>
      </trkpt>
      <trkpt lat="42.26663" lon="42.68635">
        <ele>182.385451</ele>
        <time>2021-09-20T12:35:12.284Z</time>
      </trkpt>
      <trkpt lat="42.26641" lon="42.68942">
        <ele>180.962594</ele>
        <time>2021-09-20T12:36:12.283Z</time>
      </trkpt>
      <trkpt lat="42.26671" lon="42.69227">
        <ele>178.106293</ele>
        <time>2021-09-20T12:37:01.288Z</time>
      </trkpt>
      <trkpt lat="42.26741" lon="42.69508">
        <ele>180.898818</ele>
        <time>2021-09-20T12:37:51.320Z</time>
      </trkpt>
      <trkpt lat="42.26814" lon="42.69776">
        <ele>182.568847</ele>
        <time>2021-09-20T12:38:44.321Z</time>
      </trkpt>
      <trkpt lat="42.2701" lon="42.69878">
        <ele>177.542162</ele>
        <time>2021-09-20T12:39:51.323Z</time>
      </trkpt>
      <trkpt lat="42.2707" lon="42.70158">
        <ele>172.528284</ele>
        <time>2021-09-20T12:40:58.280Z</time>
      </trkpt>
      <trkpt lat="42.27056" lon="42.70451">
        <ele>179.397074</ele>
        <time>2021-09-20T12:41:59.283Z</time>
      </trkpt>
      <trkpt lat="42.26961" lon="42.70465">
        <ele>179.397074</ele>
        <time>2021-09-20T12:43:49.191Z</time>
      </trkpt>
    </trkseg>
  </trk>
</gpx>